createdAt,value
2023-04-24T00:00:20.376Z,19.3
2023-04-24T00:10:20.765Z,19.3
2023-04-24T00:20:20.825Z,19.2
2023-04-24T00:30:20.898Z,19.2
2023-04-24T00:40:20.327Z,19.3
2023-04-24T00:50:21.254Z,19.8
2023-04-24T01:00:22.340Z,19.2
2023-04-24T01:10:22.355Z,19.4
2023-04-24T01:20:22.454Z,19.2
2023-04-24T01:30:23.335Z,19.3
2023-04-24T01:40:23.753Z,19.1
2023-04-24T01:50:24.210Z,19.1
2023-04-24T02:00:23.864Z,19.2
2023-04-24T02:10:24.577Z,19.1
2023-04-24T02:20:25.000Z,19.2
2023-04-24T02:30:24.274Z,19
2023-04-24T02:40:25.044Z,19.3
2023-04-24T02:50:25.506Z,19.1
2023-04-24T03:10:07.667Z,18.9
2023-04-24T03:20:07.834Z,18.9
2023-04-24T03:30:07.294Z,18.9
2023-04-24T03:40:06.881Z,18.9
2023-04-24T03:50:06.964Z,18.8
2023-04-24T04:00:08.438Z,18.8
2023-04-24T04:10:17.543Z,19.3
2023-04-24T04:20:23.012Z,19.1
2023-04-24T04:30:26.252Z,19.4
2023-04-24T04:40:28.253Z,18.9
2023-04-24T04:50:30.588Z,19
2023-04-24T05:00:31.626Z,19.1
2023-04-24T05:10:31.977Z,19.1
2023-04-24T05:20:32.766Z,19.1
2023-04-24T05:30:33.075Z,19
2023-04-24T05:40:38.699Z,19.6
2023-04-24T05:50:48.192Z,19.3
2023-04-24T06:01:04.490Z,19.3
2023-04-24T06:11:20.785Z,19
2023-04-24T06:21:37.319Z,19.6
2023-04-24T06:31:54.132Z,19.8
2023-04-24T06:42:09.274Z,19.5
2023-04-24T06:52:26.823Z,19.6
2023-04-24T07:02:44.233Z,19.8
2023-04-24T07:13:00.847Z,20.2
2023-04-24T07:23:19.879Z,20.9
2023-04-24T07:33:38.390Z,20.6
2023-04-24T07:43:55.064Z,20.9
2023-04-24T07:54:10.580Z,21.4
2023-04-24T08:04:26.042Z,21.6
2023-04-24T08:14:41.506Z,21.6
2023-04-24T08:24:57.619Z,21.6
2023-04-24T08:35:17.617Z,21.6
2023-04-24T08:45:38.054Z,22
2023-04-24T08:55:54.575Z,21.8
2023-04-24T09:10:25.907Z,22.3
2023-04-24T09:20:41.348Z,22.1
2023-04-24T09:30:56.274Z,22.4
2023-04-24T09:41:10.765Z,22.1
2023-04-24T09:51:26.743Z,22.2
2023-04-24T10:01:44.104Z,21.9
2023-04-24T10:12:05.020Z,23
2023-04-24T10:22:25.952Z,22.5
2023-04-24T10:32:46.725Z,22.4
2023-04-24T10:43:06.379Z,22.7
2023-04-24T10:53:26.643Z,22.3
2023-04-24T11:03:43.074Z,22.6
2023-04-24T11:13:51.817Z,22.2
2023-04-24T11:23:53.548Z,22.3
2023-04-24T11:34:03.957Z,21.6
2023-04-24T11:44:15.897Z,22.2
2023-04-24T11:54:31.515Z,22.4
2023-04-24T12:04:48.754Z,22.7
2023-04-24T12:15:08.692Z,22.2
2023-04-24T12:25:27.465Z,22.7
2023-04-24T12:35:45.579Z,22.5
2023-04-24T12:46:05.060Z,21.6
2023-04-24T12:56:23.570Z,21.9
2023-04-24T13:06:40.472Z,22.3
2023-04-24T13:17:00.427Z,22.1
2023-04-24T13:27:20.354Z,22
2023-04-24T13:37:38.831Z,22.4
2023-04-24T13:47:51.975Z,21.9
2023-04-24T15:10:09.562Z,21.8
2023-04-24T15:20:12.168Z,21.9
2023-04-24T15:30:12.716Z,21.7
2023-04-24T15:40:12.542Z,21.5
2023-04-24T15:50:14.310Z,21.5
2023-04-24T16:00:11.231Z,21.3
2023-04-24T16:10:12.115Z,21.7
2023-04-24T16:20:13.541Z,21.3
2023-04-24T16:30:16.248Z,21.4
2023-04-24T16:40:17.582Z,21.6
2023-04-24T16:50:18.962Z,21.3
2023-04-24T17:00:21.947Z,21.3
2023-04-24T17:10:21.336Z,21.3
2023-04-24T17:20:23.100Z,21.5
2023-04-24T17:30:21.831Z,20.9
2023-04-24T17:40:20.917Z,20.9
2023-04-24T17:50:21.994Z,20.9
2023-04-24T18:00:21.889Z,20.8
2023-04-24T18:10:21.621Z,20.7
2023-04-24T18:20:21.746Z,20.7
2023-04-24T18:30:21.702Z,20.8
2023-04-24T18:40:20.580Z,20.6
2023-04-24T18:50:20.105Z,20.5
2023-04-24T19:00:20.036Z,20.5
2023-04-24T19:10:20.119Z,20.4
2023-04-24T19:20:19.535Z,20.3
2023-04-24T19:30:19.418Z,20.8
2023-04-24T19:40:20.303Z,20.5
2023-04-24T19:50:19.637Z,20.1
2023-04-24T20:00:19.322Z,20.1
2023-04-24T20:10:19.234Z,20.2
2023-04-24T20:20:19.590Z,20.1
2023-04-24T20:30:19.420Z,20.1
2023-04-24T20:40:18.732Z,14.4
2023-04-24T20:50:18.744Z,16.4
2023-04-24T21:10:07.225Z,19.5
2023-04-24T21:20:07.444Z,19.6
2023-04-24T21:30:07.159Z,19.8
2023-04-24T21:50:08.209Z,20.4
2023-04-24T22:00:08.752Z,19.9
2023-04-24T22:10:09.617Z,19.8
2023-04-24T22:20:11.260Z,19.7
2023-04-24T22:30:12.643Z,19.7
2023-04-24T22:40:14.919Z,19.8
2023-04-24T22:50:16.905Z,20.1
2023-04-24T23:00:17.667Z,19.8
2023-04-24T23:10:19.076Z,19.7
2023-04-24T23:20:19.112Z,19.7
2023-04-24T23:30:20.364Z,19.8
2023-04-24T23:40:20.608Z,19.8
2023-04-24T23:50:21.421Z,20.2
